Time;durP1;ratioP1;P1;durP2;ratioP2;P2;SDS_P1;SDS_P2;PMS_P1;PMS_P2;Temp;Humidity;BMP_temperature;BMP_pressure;BME280_temperature;BME280_humidity;BME280_pressure;Samples;Min_cycle;Max_cycle;Signal;HPM_P1;HPM_P2
2021/12/30 00:00:12;0.00;0.00;0.62;0.00;0.00;0.62;3.90;1.90;;;21.80;29.50;;;;;;2268625;61;20479;-58
2021/12/30 00:02:58;0.00;0.00;0.62;0.00;0.00;0.62;2.10;1.80;;;21.70;29.40;;;;;;2269801;61;20719;-58
2021/12/30 00:05:43;0.00;0.00;0.62;0.00;0.00;0.62;4.57;2.10;;;21.70;29.40;;;;;;2269886;61;20421;-59
2021/12/30 00:08:28;0.00;0.00;0.62;0.00;0.00;0.62;2.77;2.20;;;21.70;29.40;;;;;;2268499;61;20384;-58
2021/12/30 00:11:12;0.00;0.00;0.62;0.00;0.00;0.62;3.83;2.43;;;21.70;29.50;;;;;;2269651;61;20581;-59
2021/12/30 00:13:58;0.00;0.00;0.62;0.00;0.00;0.62;3.83;2.60;;;21.70;29.50;;;;;;2269280;61;20356;-58
2021/12/30 00:16:43;0.00;0.00;0.62;0.00;0.00;0.62;2.77;2.47;;;21.70;29.60;;;;;;2268981;61;20385;-58
2021/12/30 00:19:27;0.00;0.00;0.62;0.00;0.00;0.62;3.17;2.80;;;21.70;29.70;;;;;;2269808;61;20380;-58
2021/12/30 00:22:12;0.00;0.00;0.62;0.00;0.00;0.62;3.57;3.00;;;21.70;29.80;;;;;;2268264;61;20575;-57
2021/12/30 00:24:56;0.00;0.00;0.62;0.00;0.00;0.62;3.40;2.77;;;21.60;29.80;;;;;;2269529;61;20371;-56
2021/12/30 00:27:41;0.00;0.00;0.62;0.00;0.00;0.62;5.50;2.43;;;21.70;29.80;;;;;;2270120;61;20579;-58
2021/12/30 00:30:27;0.00;0.00;0.62;0.00;0.00;0.62;4.00;2.90;;;21.60;29.80;;;;;;2269447;61;20564;-60
2021/12/30 00:33:12;0.00;0.00;0.62;0.00;0.00;0.62;2.27;2.07;;;21.60;29.90;;;;;;2270107;61;20359;-60
2021/12/30 00:35:57;0.00;0.00;0.62;0.00;0.00;0.62;3.90;2.97;;;21.60;30.00;;;;;;2270122;61;20478;-59
2021/12/30 00:38:44;0.00;0.00;0.62;0.00;0.00;0.62;3.80;2.90;;;21.60;30.00;;;;;;2269965;61;20371;-59
2021/12/30 00:41:29;0.00;0.00;0.62;0.00;0.00;0.62;3.90;2.70;;;21.60;30.00;;;;;;2270396;61;20379;-57
2021/12/30 00:44:13;0.00;0.00;0.62;0.00;0.00;0.62;4.03;2.90;;;21.60;30.00;;;;;;2269359;61;20421;-60
2021/12/30 00:46:59;0.00;0.00;0.62;0.00;0.00;0.62;4.00;2.77;;;21.60;30.10;;;;;;2269985;61;20393;-59
2021/12/30 00:49:44;0.00;0.00;0.62;0.00;0.00;0.62;3.50;2.83;;;21.50;30.10;;;;;;2270289;61;20380;-60
2021/12/30 00:52:29;0.00;0.00;0.62;0.00;0.00;0.62;2.93;2.43;;;21.50;30.10;;;;;;2269428;61;20376;-57
2021/12/30 00:55:13;0.00;0.00;0.62;0.00;0.00;0.62;3.87;2.67;;;21.50;30.10;;;;;;2269976;61;20357;-60
2021/12/30 00:57:58;0.00;0.00;0.62;0.00;0.00;0.62;3.87;2.30;;;21.50;30.20;;;;;;2270211;61;20387;-59
2021/12/30 01:00:45;0.00;0.00;0.62;0.00;0.00;0.62;2.90;2.20;;;21.50;30.80;;;;;;2269201;61;20424;-58
2021/12/30 01:03:32;0.00;0.00;0.62;0.00;0.00;0.62;2.60;2.27;;;21.50;30.80;;;;;;2270375;61;20360;-60
2021/12/30 01:06:17;0.00;0.00;0.62;0.00;0.00;0.62;6.03;2.33;;;21.50;30.20;;;;;;2269541;61;20360;-59
2021/12/30 01:09:04;0.00;0.00;0.62;0.00;0.00;0.62;3.70;2.40;;;21.50;30.20;;;;;;2269309;61;20415;-58
2021/12/30 01:11:48;0.00;0.00;0.62;0.00;0.00;0.62;3.30;2.37;;;21.50;30.20;;;;;;2269936;61;20394;-59
2021/12/30 01:14:35;0.00;0.00;0.62;0.00;0.00;0.62;5.40;2.77;;;21.50;30.20;;;;;;2269287;61;20352;-59
2021/12/30 01:17:26;0.00;0.00;0.62;0.00;0.00;0.62;3.97;2.77;;;21.50;30.20;;;;;;2269836;61;20345;-59
2021/12/30 01:20:16;0.00;0.00;0.62;0.00;0.00;0.62;2.97;2.37;;;21.50;30.30;;;;;;2270207;61;20432;-56
2021/12/30 01:23:00;0.00;0.00;0.62;0.00;0.00;0.62;3.20;2.47;;;21.50;30.30;;;;;;2269692;61;20376;-57
2021/12/30 01:25:45;0.00;0.00;0.62;0.00;0.00;0.62;3.60;2.90;;;21.50;30.30;;;;;;2270212;61;20388;-58
2021/12/30 01:28:29;0.00;0.00;0.62;0.00;0.00;0.62;3.57;3.03;;;21.50;30.50;;;;;;2269210;61;20782;-59
2021/12/30 01:31:15;0.00;0.00;0.62;0.00;0.00;0.62;3.83;2.90;;;21.50;30.50;;;;;;2269862;61;20364;-58
2021/12/30 01:33:59;0.00;0.00;0.62;0.00;0.00;0.62;3.20;2.53;;;21.50;30.50;;;;;;2270220;61;20356;-54
2021/12/30 01:36:45;0.00;0.00;0.62;0.00;0.00;0.62;4.70;3.30;;;21.50;30.60;;;;;;2269103;61;20403;-59
2021/12/30 01:39:34;0.00;0.00;0.62;0.00;0.00;0.62;4.70;2.60;;;21.50;30.60;;;;;;2269880;61;20383;-59
2021/12/30 01:42:19;0.00;0.00;0.62;0.00;0.00;0.62;3.10;2.47;;;21.40;30.60;;;;;;2270291;61;20731;-59
2021/12/30 01:45:05;0.00;0.00;0.62;0.00;0.00;0.62;5.77;3.30;;;21.40;30.60;;;;;;2269475;61;20778;-57
2021/12/30 01:47:52;0.00;0.00;0.62;0.00;0.00;0.62;4.13;2.63;;;21.40;30.60;;;;;;2269942;61;20364;-59
2021/12/30 01:50:38;0.00;0.00;0.62;0.00;0.00;0.62;5.63;2.90;;;21.40;30.60;;;;;;2269515;61;20708;-59
2021/12/30 01:53:24;0.00;0.00;0.62;0.00;0.00;0.62;4.10;2.73;;;21.40;30.60;;;;;;2269881;61;20360;-57
2021/12/30 01:56:09;0.00;0.00;0.62;0.00;0.00;0.62;3.90;2.50;;;21.40;30.60;;;;;;2270271;61;20774;-56
2021/12/30 01:58:54;0.00;0.00;0.62;0.00;0.00;0.62;3.50;2.60;;;21.40;30.60;;;;;;2268785;61;20430;-59
2021/12/30 02:01:39;0.00;0.00;0.62;0.00;0.00;0.62;3.67;2.50;;;21.40;30.60;;;;;;2269882;61;20363;-57
2021/12/30 02:04:24;0.00;0.00;0.62;0.00;0.00;0.62;4.27;2.67;;;21.40;30.60;;;;;;2270066;61;20375;-58
2021/12/30 02:07:09;0.00;0.00;0.62;0.00;0.00;0.62;5.93;2.87;;;21.40;30.70;;;;;;2269023;61;20726;-56
2021/12/30 02:10:00;0.00;0.00;0.62;0.00;0.00;0.62;4.50;2.57;;;21.40;30.70;;;;;;2269489;61;20376;-60
2021/12/30 02:12:46;0.00;0.00;0.62;0.00;0.00;0.62;4.07;2.63;;;21.40;31.50;;;;;;2269511;61;20716;-57
2021/12/30 02:15:30;0.00;0.00;0.62;0.00;0.00;0.62;3.40;2.53;;;21.40;30.80;;;;;;2269754;61;20394;-56
2021/12/30 02:18:15;0.00;0.00;0.62;0.00;0.00;0.62;5.77;3.40;;;21.40;30.90;;;;;;2270011;61;20490;-58
2021/12/30 02:21:03;0.00;0.00;0.62;0.00;0.00;0.62;5.73;3.23;;;21.40;30.90;;;;;;2269073;61;20359;-58
2021/12/30 02:23:48;0.00;0.00;0.62;0.00;0.00;0.62;3.43;2.87;;;21.40;31.00;;;;;;2269672;61;20364;-59
2021/12/30 02:26:33;0.00;0.00;0.62;0.00;0.00;0.62;4.23;2.60;;;21.40;31.00;;;;;;2270092;61;20364;-58
2021/12/30 02:29:18;0.00;0.00;0.62;0.00;0.00;0.62;6.37;3.00;;;21.40;31.00;;;;;;2268733;61;20415;-60
2021/12/30 02:32:03;0.00;0.00;0.62;0.00;0.00;0.62;4.87;3.40;;;21.40;31.00;;;;;;2269711;61;20356;-57
2021/12/30 02:34:48;0.00;0.00;0.62;0.00;0.00;0.62;4.73;2.80;;;21.40;31.10;;;;;;2269452;61;20724;-58
2021/12/30 02:37:35;0.00;0.00;0.62;0.00;0.00;0.62;5.50;2.93;;;21.40;31.10;;;;;;2269526;61;20406;-58
2021/12/30 02:40:24;0.00;0.00;0.62;0.00;0.00;0.62;5.97;3.33;;;21.40;31.10;;;;;;2270062;61;20375;-59
2021/12/30 02:43:13;0.00;0.00;0.62;0.00;0.00;0.62;3.80;2.80;;;21.40;31.10;;;;;;2269031;61;20359;-58
2021/12/30 02:46:01;0.00;0.00;0.62;0.00;0.00;0.62;7.07;3.63;;;21.40;31.20;;;;;;2269677;61;20450;-56
2021/12/30 02:48:45;0.00;0.00;0.62;0.00;0.00;0.62;4.30;3.20;;;21.30;31.10;;;;;;2269565;61;20392;-56
2021/12/30 02:51:30;0.00;0.00;0.62;0.00;0.00;0.62;5.23;3.17;;;21.40;31.30;;;;;;2269287;61;20356;-57
2021/12/30 02:54:17;0.00;0.00;0.62;0.00;0.00;0.62;4.23;3.47;;;21.40;31.40;;;;;;2269773;61;20356;-59
2021/12/30 02:57:02;0.00;0.00;0.62;0.00;0.00;0.62;3.93;3.00;;;21.30;31.40;;;;;;2269204;61;20422;-58
2021/12/30 02:59:46;0.00;0.00;0.62;0.00;0.00;0.62;6.00;3.30;;;21.30;31.50;;;;;;2269673;61;20581;-57
2021/12/30 03:02:31;0.00;0.00;0.62;0.00;0.00;0.62;4.47;2.87;;;21.30;31.60;;;;;;2269597;61;20384;-56
2021/12/30 03:05:19;0.00;0.00;0.62;0.00;0.00;0.62;4.90;2.57;;;21.30;31.60;;;;;;2268907;61;20379;-59
2021/12/30 03:08:04;0.00;0.00;0.62;0.00;0.00;0.62;4.90;2.93;;;21.30;31.60;;;;;;2269458;61;20463;-57
2021/12/30 03:10:50;0.00;0.00;0.62;0.00;0.00;0.62;6.10;3.27;;;21.30;31.60;;;;;;2269909;61;20364;-59
2021/12/30 03:13:36;0.00;0.00;0.62;0.00;0.00;0.62;6.53;3.13;;;21.30;31.60;;;;;;2269059;61;20389;-58
2021/12/30 03:16:28;0.00;0.00;0.62;0.00;0.00;0.62;9.80;3.30;;;21.30;31.60;;;;;;2269697;61;20360;-59
2021/12/30 03:19:12;0.00;0.00;0.62;0.00;0.00;0.62;8.87;2.63;;;21.30;31.60;;;;;;2269208;61;20379;-57
2021/12/30 03:21:56;0.00;0.00;0.62;0.00;0.00;0.62;4.07;2.70;;;21.20;31.60;;;;;;2269447;61;20391;-60
2021/12/30 03:24:41;0.00;0.00;0.62;0.00;0.00;0.62;5.20;2.60;;;21.20;31.60;;;;;;2269449;61;20384;-59
2021/12/30 03:27:27;0.00;0.00;0.62;0.00;0.00;0.62;5.43;2.90;;;21.20;31.60;;;;;;2268602;61;20572;-59
2021/12/30 03:30:17;0.00;0.00;0.62;0.00;0.00;0.62;7.13;3.37;;;21.20;31.70;;;;;;2269525;61;20426;-59
2021/12/30 03:33:01;0.00;0.00;0.62;0.00;0.00;0.62;7.63;3.00;;;21.20;31.70;;;;;;2269849;61;20352;-56
2021/12/30 03:35:46;0.00;0.00;0.62;0.00;0.00;0.62;6.40;2.53;;;21.20;31.70;;;;;;2268954;61;20399;-59
2021/12/30 03:38:34;0.00;0.00;0.62;0.00;0.00;0.62;11.07;3.00;;;21.20;31.70;;;;;;2269377;61;20419;-58
2021/12/30 03:41:22;0.00;0.00;0.62;0.00;0.00;0.62;7.23;3.00;;;21.20;31.80;;;;;;2269256;61;20364;-55
2021/12/30 03:44:08;0.00;0.00;0.62;0.00;0.00;0.62;5.00;3.00;;;21.20;31.90;;;;;;2269490;61;20766;-54
2021/12/30 03:46:53;0.00;0.00;0.62;0.00;0.00;0.62;7.40;3.33;;;21.20;31.90;;;;;;2269721;61;20687;-58
2021/12/30 03:49:38;0.00;0.00;0.62;0.00;0.00;0.62;7.63;3.17;;;21.20;31.90;;;;;;2268780;61;20376;-58
2021/12/30 03:52:28;0.00;0.00;0.62;0.00;0.00;0.62;7.00;3.50;;;21.20;31.90;;;;;;2269629;61;20355;-58
2021/12/30 03:55:14;0.00;0.00;0.62;0.00;0.00;0.62;7.90;2.60;;;21.20;31.90;;;;;;2269885;61;20372;-54
2021/12/30 03:57:58;0.00;0.00;0.62;0.00;0.00;0.62;6.40;3.80;;;21.20;31.90;;;;;;2268794;61;20392;-59
2021/12/30 04:00:45;0.00;0.00;0.62;0.00;0.00;0.62;6.00;2.63;;;21.20;32.00;;;;;;2270021;61;20426;-57
2021/12/30 04:03:29;0.00;0.00;0.62;0.00;0.00;0.62;9.00;3.10;;;21.20;32.00;;;;;;2270000;61;20363;-56
2021/12/30 04:06:14;0.00;0.00;0.62;0.00;0.00;0.62;8.57;2.90;;;21.10;31.90;;;;;;2269648;61;20638;-57
2021/12/30 04:09:00;0.00;0.00;0.62;0.00;0.00;0.62;9.40;3.83;;;21.10;32.00;;;;;;2270203;61;20754;-56
2021/12/30 04:11:44;0.00;0.00;0.62;0.00;0.00;0.62;9.43;4.03;;;21.10;32.00;;;;;;2269530;61;20395;-56
2021/12/30 04:14:29;0.00;0.00;0.62;0.00;0.00;0.62;11.17;4.10;;;21.10;32.10;;;;;;2270142;61;20359;-58
2021/12/30 04:17:15;0.00;0.00;0.62;0.00;0.00;0.62;6.70;3.27;;;21.10;32.10;;;;;;2270355;61;20456;-57
2021/12/30 04:19:59;0.00;0.00;0.62;0.00;0.00;0.62;8.70;4.30;;;21.00;32.00;;;;;;2269511;61;20379;-58
2021/12/30 04:22:44;0.00;0.00;0.62;0.00;0.00;0.62;7.40;4.50;;;21.00;32.10;;;;;;2270082;61;20372;-57
2021/12/30 04:25:29;0.00;0.00;0.62;0.00;0.00;0.62;6.80;3.77;;;21.00;32.10;;;;;;2270161;61;20604;-59
2021/12/30 04:28:16;0.00;0.00;0.62;0.00;0.00;0.62;11.10;3.20;;;21.00;32.10;;;;;;2269489;61;20407;-59
2021/12/30 04:31:00;0.00;0.00;0.62;0.00;0.00;0.62;11.03;3.90;;;21.00;32.10;;;;;;2270279;61;20359;-56
2021/12/30 04:33:46;0.00;0.00;0.62;0.00;0.00;0.62;9.90;3.93;;;21.00;32.20;;;;;;2269293;61;20812;-58
2021/12/30 04:36:30;0.00;0.00;0.62;0.00;0.00;0.62;10.03;3.97;;;21.00;32.10;;;;;;2270062;61;20356;-58
2021/12/30 04:39:15;0.00;0.00;0.62;0.00;0.00;0.62;8.80;4.40;;;21.00;32.10;;;;;;2270218;61;20399;-52
2021/12/30 04:42:01;0.00;0.00;0.62;0.00;0.00;0.62;12.27;4.17;;;20.90;32.10;;;;;;2269338;61;20382;-57
2021/12/30 04:44:48;0.00;0.00;0.62;0.00;0.00;0.62;8.40;4.23;;;20.90;32.10;;;;;;2270050;61;20908;-58
2021/12/30 04:47:32;0.00;0.00;0.62;0.00;0.00;0.62;9.30;3.83;;;20.90;32.10;;;;;;2269797;61;20704;-56
2021/12/30 04:50:18;0.00;0.00;0.62;0.00;0.00;0.62;9.97;3.60;;;20.90;32.10;;;;;;2269905;61;20474;-58
2021/12/30 04:53:03;0.00;0.00;0.62;0.00;0.00;0.62;5.50;2.80;;;20.90;32.10;;;;;;2270365;61;20599;-56
2021/12/30 04:55:48;0.00;0.00;0.62;0.00;0.00;0.62;10.63;3.43;;;20.90;32.10;;;;;;2269184;61;20387;-57
2021/12/30 04:58:32;0.00;0.00;0.62;0.00;0.00;0.62;15.20;4.77;;;20.90;32.10;;;;;;2269839;61;20411;-55
2021/12/30 05:01:17;0.00;0.00;0.62;0.00;0.00;0.62;9.70;3.57;;;20.90;32.10;;;;;;2270407;61;20586;-58
2021/12/30 05:04:01;0.00;0.00;0.62;0.00;0.00;0.62;7.93;3.53;;;20.90;32.10;;;;;;2269218;61;20360;-61
2021/12/30 05:06:47;0.00;0.00;0.62;0.00;0.00;0.62;12.50;4.17;;;20.90;32.10;;;;;;2269981;61;20360;-58
2021/12/30 05:09:32;0.00;0.00;0.62;0.00;0.00;0.62;7.70;3.33;;;20.90;32.20;;;;;;2270141;61;20744;-58
2021/12/30 05:12:17;0.00;0.00;0.62;0.00;0.00;0.62;12.80;4.33;;;20.90;32.20;;;;;;2269095;61;20360;-59
2021/12/30 05:15:01;0.00;0.00;0.62;0.00;0.00;0.62;9.60;5.00;;;20.90;32.90;;;;;;2270187;61;20436;-57
2021/12/30 05:17:46;0.00;0.00;0.62;0.00;0.00;0.62;9.50;4.17;;;20.80;32.10;;;;;;2269538;61;20597;-56
2021/12/30 05:20:30;0.00;0.00;0.62;0.00;0.00;0.62;7.37;3.10;;;20.80;32.10;;;;;;2269913;61;20471;-57
2021/12/30 05:23:17;0.00;0.00;0.62;0.00;0.00;0.62;9.90;4.40;;;20.80;32.10;;;;;;2270274;61;20376;-59
2021/12/30 05:26:03;0.00;0.00;0.62;0.00;0.00;0.62;12.27;4.50;;;20.80;32.10;;;;;;2268689;61;20473;-59
2021/12/30 05:28:47;0.00;0.00;0.62;0.00;0.00;0.62;10.53;4.50;;;20.80;32.20;;;;;;2269763;61;20438;-57
2021/12/30 05:31:32;0.00;0.00;0.62;0.00;0.00;0.62;11.67;4.00;;;20.80;32.20;;;;;;2270266;61;20364;-56
2021/12/30 05:34:16;0.00;0.00;0.62;0.00;0.00;0.62;9.20;4.00;;;20.80;32.20;;;;;;2269493;61;20363;-58
2021/12/30 05:37:01;0.00;0.00;0.62;0.00;0.00;0.62;9.40;4.73;;;20.80;32.30;;;;;;2270094;61;20355;-59
2021/12/30 05:39:47;0.00;0.00;0.62;0.00;0.00;0.62;8.53;4.03;;;20.70;32.30;;;;;;2269527;61;20474;-59
2021/12/30 05:42:31;0.00;0.00;0.62;0.00;0.00;0.62;9.47;4.37;;;20.70;32.30;;;;;;2269700;61;20843;-60
2021/12/30 05:45:17;0.00;0.00;0.62;0.00;0.00;0.62;8.97;3.80;;;20.70;32.30;;;;;;2270234;61;20411;-59
2021/12/30 05:48:01;0.00;0.00;0.62;0.00;0.00;0.62;6.90;3.63;;;20.70;32.30;;;;;;2268907;61;20376;-59
2021/12/30 05:50:46;0.00;0.00;0.62;0.00;0.00;0.62;8.50;3.60;;;20.70;32.30;;;;;;2269847;61;20380;-58
2021/12/30 05:53:31;0.00;0.00;0.62;0.00;0.00;0.62;9.20;3.20;;;20.70;32.20;;;;;;2270246;61;20782;-59
2021/12/30 05:56:17;0.00;0.00;0.62;0.00;0.00;0.62;6.77;3.37;;;20.70;32.20;;;;;;2269091;61;20418;-59
2021/12/30 05:59:02;0.00;0.00;0.62;0.00;0.00;0.62;8.50;4.00;;;20.80;32.30;;;;;;2269906;61;20507;-60
2021/12/30 06:01:47;0.00;0.00;0.62;0.00;0.00;0.62;7.60;3.43;;;20.80;32.30;;;;;;2269743;61;20402;-61
2021/12/30 06:04:32;0.00;0.00;0.62;0.00;0.00;0.62;8.03;3.67;;;20.70;32.30;;;;;;2269305;61;20615;-57
2021/12/30 06:07:17;0.00;0.00;0.62;0.00;0.00;0.62;9.67;3.53;;;20.80;32.40;;;;;;2269853;61;20600;-59
2021/12/30 06:10:03;0.00;0.00;0.62;0.00;0.00;0.62;6.90;3.90;;;20.80;32.30;;;;;;2269206;61;20380;-58
2021/12/30 06:12:49;0.00;0.00;0.62;0.00;0.00;0.62;6.27;2.90;;;20.80;32.30;;;;;;2269674;61;20398;-57
2021/12/30 06:15:34;0.00;0.00;0.62;0.00;0.00;0.62;7.67;3.63;;;20.80;32.30;;;;;;2270143;61;20352;-59
2021/12/30 06:18:18;0.00;0.00;0.62;0.00;0.00;0.62;7.53;3.60;;;20.80;32.20;;;;;;2269020;61;20511;-57
2021/12/30 06:21:03;0.00;0.00;0.62;0.00;0.00;0.62;7.17;3.40;;;20.80;32.20;;;;;;2269808;61;20368;-56
2021/12/30 06:23:48;0.00;0.00;0.62;0.00;0.00;0.62;6.40;2.93;;;20.90;32.30;;;;;;2269602;61;20355;-58
2021/12/30 06:26:32;0.00;0.00;0.62;0.00;0.00;0.62;8.63;2.90;;;20.90;32.20;;;;;;2269708;61;20369;-58
2021/12/30 06:29:18;0.00;0.00;0.62;0.00;0.00;0.62;6.57;3.13;;;20.90;32.20;;;;;;2269780;61;20487;-57
2021/12/30 06:32:05;0.00;0.00;0.62;0.00;0.00;0.62;5.90;2.50;;;21.00;32.20;;;;;;2269089;61;20364;-57
2021/12/30 06:34:50;0.00;0.00;0.62;0.00;0.00;0.62;7.43;2.70;;;21.00;32.10;;;;;;2269801;61;20353;-59
2021/12/30 06:37:35;0.00;0.00;0.62;0.00;0.00;0.62;5.30;3.00;;;21.00;32.10;;;;;;2269965;61;20429;-58
2021/12/30 06:40:20;0.00;0.00;0.62;0.00;0.00;0.62;4.37;2.73;;;21.00;32.00;;;;;;2269087;61;20398;-58
2021/12/30 06:43:04;0.00;0.00;0.62;0.00;0.00;0.62;5.97;3.37;;;21.00;32.00;;;;;;2269671;61;20627;-59
2021/12/30 06:45:51;0.00;0.00;0.62;0.00;0.00;0.62;5.27;2.80;;;21.10;32.00;;;;;;2269961;61;20510;-56
2021/12/30 06:48:35;0.00;0.00;0.62;0.00;0.00;0.62;5.00;2.87;;;21.10;32.00;;;;;;2268805;61;20435;-57
2021/12/30 06:51:22;0.00;0.00;0.62;0.00;0.00;0.62;6.70;2.57;;;21.10;31.90;;;;;;2269991;61;20356;-58
2021/12/30 06:54:07;0.00;0.00;0.62;0.00;0.00;0.62;5.80;2.43;;;21.10;31.90;;;;;;2269243;61;20475;-59
2021/12/30 06:56:55;0.00;0.00;0.62;0.00;0.00;0.62;5.63;2.63;;;21.20;31.90;;;;;;2269546;61;20391;-56
2021/12/30 06:59:40;0.00;0.00;0.62;0.00;0.00;0.62;3.50;2.17;;;21.20;31.90;;;;;;2270054;61;20499;-59
2021/12/30 07:02:26;0.00;0.00;0.62;0.00;0.00;0.62;6.20;2.77;;;21.20;31.90;;;;;;2269202;61;20352;-56
2021/12/30 07:05:11;0.00;0.00;0.62;0.00;0.00;0.62;3.53;2.40;;;21.20;31.80;;;;;;2269603;61;20502;-58
2021/12/30 07:07:56;0.00;0.00;0.62;0.00;0.00;0.62;3.47;2.23;;;21.20;31.80;;;;;;2269839;61;20353;-60
2021/12/30 07:10:41;0.00;0.00;0.62;0.00;0.00;0.62;5.03;2.37;;;21.20;31.70;;;;;;2269115;61;20585;-58
2021/12/30 07:13:26;0.00;0.00;0.62;0.00;0.00;0.62;4.70;2.63;;;21.20;31.70;;;;;;2269732;61;20395;-59
2021/12/30 07:16:10;0.00;0.00;0.62;0.00;0.00;0.62;5.50;1.90;;;21.20;31.60;;;;;;2268985;61;20344;-57
2021/12/30 07:18:56;0.00;0.00;0.62;0.00;0.00;0.62;2.93;1.97;;;21.30;31.70;;;;;;2269277;61;20376;-59
2021/12/30 07:21:42;0.00;0.00;0.62;0.00;0.00;0.62;3.30;1.97;;;21.30;31.60;;;;;;2270100;61;20368;-58
2021/12/30 07:24:26;0.00;0.00;0.62;0.00;0.00;0.62;4.00;2.03;;;21.30;31.60;;;;;;2268896;61;20352;-59
2021/12/30 07:27:11;0.00;0.00;0.62;0.00;0.00;0.62;2.50;1.60;;;21.30;31.60;;;;;;2269332;61;20386;-58
2021/12/30 07:29:56;0.00;0.00;0.62;0.00;0.00;0.62;2.80;1.80;;;21.30;31.60;;;;;;2269868;61;20418;-59
2021/12/30 07:32:40;0.00;0.00;0.62;0.00;0.00;0.62;4.23;2.13;;;21.30;31.60;;;;;;2268968;61;20359;-58
2021/12/30 07:35:26;0.00;0.00;0.62;0.00;0.00;0.62;2.83;1.73;;;21.40;31.70;;;;;;2269712;61;20379;-59
2021/12/30 07:38:11;0.00;0.00;0.62;0.00;0.00;0.62;3.47;2.07;;;21.30;31.50;;;;;;2269219;61;20403;-58
2021/12/30 07:40:56;0.00;0.00;0.62;0.00;0.00;0.62;4.37;2.13;;;21.40;31.60;;;;;;2269201;61;20356;-58
2021/12/30 07:43:40;0.00;0.00;0.62;0.00;0.00;0.62;2.43;1.80;;;21.30;31.50;;;;;;2269975;61;20364;-58
2021/12/30 07:46:25;0.00;0.00;0.62;0.00;0.00;0.62;3.50;2.17;;;21.40;31.50;;;;;;2268668;61;20380;-59
2021/12/30 07:49:10;0.00;0.00;0.62;0.00;0.00;0.62;3.33;1.67;;;21.40;31.50;;;;;;2269361;61;20434;-59
2021/12/30 07:51:56;0.00;0.00;0.62;0.00;0.00;0.62;3.40;1.93;;;21.40;31.50;;;;;;2269908;61;20472;-59
2021/12/30 07:54:40;0.00;0.00;0.62;0.00;0.00;0.62;2.63;1.73;;;21.40;31.50;;;;;;2268721;61;20699;-58
2021/12/30 07:57:25;0.00;0.00;0.62;0.00;0.00;0.62;2.90;1.60;;;21.40;31.40;;;;;;2269189;61;20394;-57
2021/12/30 08:00:13;0.00;0.00;0.62;0.00;0.00;0.62;2.83;1.73;;;21.40;31.40;;;;;;2269351;61;20643;-57
2021/12/30 08:02:57;0.00;0.00;0.62;0.00;0.00;0.62;2.73;1.67;;;21.40;31.40;;;;;;2269263;61;20403;-59
2021/12/30 08:05:42;0.00;0.00;0.62;0.00;0.00;0.62;2.07;1.60;;;21.50;31.50;;;;;;2269860;61;20433;-57
2021/12/30 08:08:28;0.00;0.00;0.62;0.00;0.00;0.62;2.63;1.43;;;21.40;31.30;;;;;;2268451;61;20376;-58
2021/12/30 08:11:12;0.00;0.00;0.62;0.00;0.00;0.62;2.40;1.70;;;21.50;31.40;;;;;;2269598;61;20357;-59
2021/12/30 08:13:59;0.00;0.00;0.62;0.00;0.00;0.62;3.20;1.53;;;21.50;31.40;;;;;;2269711;61;20376;-59
2021/12/30 08:16:43;0.00;0.00;0.62;0.00;0.00;0.62;2.60;1.60;;;21.50;31.40;;;;;;2268782;61;20426;-59
2021/12/30 08:19:28;0.00;0.00;0.62;0.00;0.00;0.62;2.07;1.23;;;21.50;31.30;;;;;;2269492;61;20371;-59
2021/12/30 08:22:12;0.00;0.00;0.62;0.00;0.00;0.62;1.87;1.47;;;21.50;31.40;;;;;;2269387;61;20375;-57
2021/12/30 08:24:58;0.00;0.00;0.62;0.00;0.00;0.62;4.13;1.97;;;21.50;31.30;;;;;;2269401;61;20384;-57
2021/12/30 08:27:44;0.00;0.00;0.62;0.00;0.00;0.62;2.57;1.60;;;21.50;31.30;;;;;;2269523;61;20364;-54
2021/12/30 08:30:28;0.00;0.00;0.62;0.00;0.00;0.62;2.33;1.70;;;21.50;31.30;;;;;;2268509;61;20386;-56
2021/12/30 08:33:13;0.00;0.00;0.62;0.00;0.00;0.62;2.30;1.30;;;21.50;31.20;;;;;;2269276;61;20352;-60
2021/12/30 08:35:58;0.00;0.00;0.62;0.00;0.00;0.62;3.60;2.23;;;21.50;31.20;;;;;;2269699;61;20367;-58
2021/12/30 08:38:42;0.00;0.00;0.62;0.00;0.00;0.62;4.23;1.60;;;21.50;31.20;;;;;;2268460;61;20427;-59
2021/12/30 08:41:28;0.00;0.00;0.62;0.00;0.00;0.62;2.23;1.50;;;21.60;31.30;;;;;;2269421;61;20368;-57
2021/12/30 08:44:13;0.00;0.00;0.62;0.00;0.00;0.62;2.97;1.80;;;21.60;31.30;;;;;;2269615;61;20622;-57
2021/12/30 08:46:57;0.00;0.00;0.62;0.00;0.00;0.62;2.30;1.60;;;21.60;31.30;;;;;;2269240;61;20406;-58
2021/12/30 08:49:45;0.00;0.00;0.62;0.00;0.00;0.62;2.17;1.43;;;21.60;31.20;;;;;;2270238;61;20603;-59
2021/12/30 08:52:30;0.00;0.00;0.62;0.00;0.00;0.62;1.70;1.20;;;21.60;31.30;;;;;;2269585;61;20384;-57
2021/12/30 08:55:16;0.00;0.00;0.62;0.00;0.00;0.62;2.43;1.60;;;21.60;31.20;;;;;;2270045;61;20684;-58
2021/12/30 08:58:02;0.00;0.00;0.62;0.00;0.00;0.62;2.00;1.40;;;21.60;31.20;;;;;;2270266;61;20376;-59
2021/12/30 09:00:47;0.00;0.00;0.62;0.00;0.00;0.62;2.73;1.40;;;21.60;31.20;;;;;;2269398;61;20483;-57
2021/12/30 09:03:32;0.00;0.00;0.62;0.00;0.00;0.62;2.07;1.70;;;21.60;31.10;;;;;;2270024;61;20356;-59
2021/12/30 09:06:16;0.00;0.00;0.62;0.00;0.00;0.62;2.37;1.40;;;21.60;31.20;;;;;;2270351;61;20384;-58
2021/12/30 09:09:01;0.00;0.00;0.62;0.00;0.00;0.62;3.03;1.70;;;21.60;31.10;;;;;;2269434;61;20434;-58
2021/12/30 09:11:45;0.00;0.00;0.62;0.00;0.00;0.62;1.60;1.30;;;21.60;31.10;;;;;;2270067;61;20352;-55
2021/12/30 09:14:31;0.00;0.00;0.62;0.00;0.00;0.62;1.77;1.10;;;21.60;31.10;;;;;;2269863;61;20352;-59
2021/12/30 09:17:16;0.00;0.00;0.62;0.00;0.00;0.62;1.73;1.30;;;21.70;31.20;;;;;;2269867;61;20364;-58
2021/12/30 09:20:00;0.00;0.00;0.62;0.00;0.00;0.62;2.27;1.50;;;21.60;31.10;;;;;;2270427;61;20460;-58
2021/12/30 09:22:45;0.00;0.00;0.62;0.00;0.00;0.62;2.00;1.40;;;21.70;31.10;;;;;;2269273;61;20467;-57
2021/12/30 09:25:30;0.00;0.00;0.62;0.00;0.00;0.62;2.17;1.40;;;21.70;31.10;;;;;;2270036;61;20384;-56
2021/12/30 09:28:15;0.00;0.00;0.62;0.00;0.00;0.62;1.70;1.23;;;21.70;31.20;;;;;;2270108;61;20794;-56
2021/12/30 09:31:01;0.00;0.00;0.62;0.00;0.00;0.62;2.50;1.30;;;21.70;31.10;;;;;;2269318;61;20356;-59
2021/12/30 09:33:45;0.00;0.00;0.62;0.00;0.00;0.62;2.50;1.50;;;21.70;31.10;;;;;;2270044;61;20356;-59
2021/12/30 09:36:30;0.00;0.00;0.62;0.00;0.00;0.62;2.17;1.20;;;21.70;31.10;;;;;;2269622;61;20388;-56
2021/12/30 09:39:16;0.00;0.00;0.62;0.00;0.00;0.62;2.33;1.40;;;21.70;31.10;;;;;;2269422;61;20453;-58
2021/12/30 09:42:01;0.00;0.00;0.62;0.00;0.00;0.62;2.10;1.23;;;21.70;31.10;;;;;;2270378;61;20355;-57
2021/12/30 09:44:46;0.00;0.00;0.62;0.00;0.00;0.62;1.40;1.03;;;21.70;31.10;;;;;;2269233;61;20383;-58
2021/12/30 09:47:33;0.00;0.00;0.62;0.00;0.00;0.62;2.03;1.27;;;21.70;31.10;;;;;;2269816;61;20340;-58
2021/12/30 09:50:23;0.00;0.00;0.62;0.00;0.00;0.62;1.97;1.40;;;21.80;31.10;;;;;;2270243;61;20356;-57
2021/12/30 09:53:08;0.00;0.00;0.62;0.00;0.00;0.62;1.43;1.00;;;21.80;31.10;;;;;;2269202;61;20383;-58
2021/12/30 09:55:59;0.00;0.00;0.62;0.00;0.00;0.62;2.70;1.57;;;21.80;31.10;;;;;;2269979;61;20375;-57
2021/12/30 09:58:45;0.00;0.00;0.62;0.00;0.00;0.62;1.70;1.20;;;21.80;31.10;;;;;;2269307;61;20368;-58
2021/12/30 10:01:29;0.00;0.00;0.62;0.00;0.00;0.62;1.80;1.37;;;21.80;31.10;;;;;;2269597;61;20356;-57
2021/12/30 10:04:15;0.00;0.00;0.62;0.00;0.00;0.62;1.70;1.17;;;21.80;31.10;;;;;;2270193;61;20466;-56
2021/12/30 10:07:16;0.00;0.00;0.62;0.00;0.00;0.62;1.97;0.93;;;21.80;31.10;;;;;;2269015;61;20379;-57
2021/12/30 10:10:03;0.00;0.00;0.62;0.00;0.00;0.62;1.60;1.17;;;21.80;31.10;;;;;;2269943;61;20372;-57
2021/12/30 10:12:48;0.00;0.00;0.62;0.00;0.00;0.62;2.10;1.20;;;21.80;31.00;;;;;;2270076;61;20363;-56
2021/12/30 10:15:41;0.00;0.00;0.62;0.00;0.00;0.62;1.50;1.00;;;21.80;31.00;;;;;;2269640;61;20357;-57
2021/12/30 10:18:43;0.00;0.00;0.62;0.00;0.00;0.62;1.70;1.13;;;21.80;31.00;;;;;;2269946;61;20380;-58
2021/12/30 10:21:34;0.00;0.00;0.62;0.00;0.00;0.62;1.50;1.03;;;21.90;31.10;;;;;;2269156;61;20779;-56
2021/12/30 10:24:18;0.00;0.00;0.62;0.00;0.00;0.62;2.10;1.20;;;21.90;31.10;;;;;;2270004;61;20807;-57
2021/12/30 10:27:03;0.00;0.00;0.62;0.00;0.00;0.62;1.50;0.90;;;21.80;31.00;;;;;;2269847;61;20357;-58
2021/12/30 10:29:48;0.00;0.00;0.62;0.00;0.00;0.62;2.20;1.60;;;21.90;31.10;;;;;;2268746;61;20384;-58
2021/12/30 10:32:33;0.00;0.00;0.62;0.00;0.00;0.62;1.50;1.10;;;21.90;31.10;;;;;;2269755;61;20457;-58
2021/12/30 10:35:17;0.00;0.00;0.62;0.00;0.00;0.62;1.40;0.90;;;21.90;31.00;;;;;;2269865;61;20402;-56
2021/12/30 10:38:09;0.00;0.00;0.62;0.00;0.00;0.62;1.50;0.90;;;21.90;31.10;;;;;;2269681;61;20403;-57
2021/12/30 10:40:58;0.00;0.00;0.62;0.00;0.00;0.62;1.60;1.00;;;21.90;31.10;;;;;;2269995;61;20582;-57
2021/12/30 10:46:28;0.00;0.00;0.62;0.00;0.00;0.62;1.40;0.90;;;21.90;31.00;;;;;;2269742;61;20418;-57
2021/12/30 10:49:22;0.00;0.00;0.62;0.00;0.00;0.62;1.60;0.90;;;21.90;31.00;;;;;;2269891;61;21005;-58
2021/12/30 10:52:06;0.00;0.00;0.62;0.00;0.00;0.62;1.70;1.10;;;21.90;31.00;;;;;;2269097;61;20387;-58
2021/12/30 10:54:52;0.00;0.00;0.62;0.00;0.00;0.62;1.40;0.87;;;22.00;31.10;;;;;;2269644;61;20387;-57